sensor_id;sensor_type;location;lat;lon;timestamp;pressure;altitude;pressure_sealevel;temperature;humidity
19112;BME280;9688;51.906;8.376;2023-02-16T00:00:49;101596.69;;;5.21;85.22
19112;BME280;9688;51.906;8.376;2023-02-16T00:03:35;101597.56;;;5.21;85.17
19112;BME280;9688;51.906;8.376;2023-02-16T00:06:23;101594.94;;;5.20;85.58
19112;BME280;9688;51.906;8.376;2023-02-16T00:09:10;101591.44;;;5.21;84.81
19112;BME280;9688;51.906;8.376;2023-02-16T00:11:56;101588.81;;;5.22;84.87
19112;BME280;9688;51.906;8.376;2023-02-16T00:15:00;101584.47;;;5.21;85.48
19112;BME280;9688;51.906;8.376;2023-02-16T00:17:46;101587.09;;;5.21;85.26
19112;BME280;9688;51.906;8.376;2023-02-16T00:20:31;101582.69;;;5.20;85.54
19112;BME280;9688;51.906;8.376;2023-02-16T00:23:19;101581.84;;;5.17;86.06
19112;BME280;9688;51.906;8.376;2023-02-16T00:26:05;101593.19;;;5.09;85.95
19112;BME280;9688;51.906;8.376;2023-02-16T00:28:57;101582.72;;;5.03;85.27
19112;BME280;9688;51.906;8.376;2023-02-16T00:31:42;101567.00;;;5.03;86.19
19112;BME280;9688;51.906;8.376;2023-02-16T00:34:31;101573.09;;;5.04;86.43
19112;BME280;9688;51.906;8.376;2023-02-16T00:37:17;101569.63;;;5.00;86.01
19112;BME280;9688;51.906;8.376;2023-02-16T00:40:07;101559.13;;;4.97;85.88
19112;BME280;9688;51.906;8.376;2023-02-16T00:42:53;101559.13;;;4.96;85.93
19112;BME280;9688;51.906;8.376;2023-02-16T00:45:39;101567.00;;;4.89;86.66
19112;BME280;9688;51.906;8.376;2023-02-16T00:48:24;101561.75;;;4.86;85.92
19112;BME280;9688;51.906;8.376;2023-02-16T00:51:10;101563.50;;;4.81;85.69
19112;BME280;9688;51.906;8.376;2023-02-16T00:53:56;101570.47;;;4.76;86.65
19112;BME280;9688;51.906;8.376;2023-02-16T00:56:44;101567.88;;;4.68;86.67
19112;BME280;9688;51.906;8.376;2023-02-16T00:59:30;101563.50;;;4.67;87.21
19112;BME280;9688;51.906;8.376;2023-02-16T01:02:16;101556.50;;;4.65;87.04
19112;BME280;9688;51.906;8.376;2023-02-16T01:05:02;101572.22;;;4.63;86.60
19112;BME280;9688;51.906;8.376;2023-02-16T01:07:48;101566.09;;;4.58;87.09
19112;BME280;9688;51.906;8.376;2023-02-16T01:10:52;101559.09;;;4.51;87.02
19112;BME280;9688;51.906;8.376;2023-02-16T01:13:56;101558.22;;;4.47;86.19
19112;BME280;9688;51.906;8.376;2023-02-16T01:16:42;101552.09;;;4.42;86.90
19112;BME280;9688;51.906;8.376;2023-02-16T01:19:28;101546.00;;;4.33;87.15
19112;BME280;9688;51.906;8.376;2023-02-16T01:22:14;101541.59;;;4.29;87.68
19112;BME280;9688;51.906;8.376;2023-02-16T01:25:00;101539.00;;;4.27;86.95
19112;BME280;9688;51.906;8.376;2023-02-16T01:27:46;101538.13;;;4.25;87.60
19112;BME280;9688;51.906;8.376;2023-02-16T01:30:34;101534.63;;;4.23;87.72
19112;BME280;9688;51.906;8.376;2023-02-16T01:33:20;101534.63;;;4.23;87.97
19112;BME280;9688;51.906;8.376;2023-02-16T01:36:06;101539.00;;;4.24;88.01
19112;BME280;9688;51.906;8.376;2023-02-16T01:39:01;101545.97;;;4.22;87.93
19112;BME280;9688;51.906;8.376;2023-02-16T01:41:58;101539.81;;;4.18;88.09
19112;BME280;9688;51.906;8.376;2023-02-16T01:44:49;101542.47;;;4.20;87.52
19112;BME280;9688;51.906;8.376;2023-02-16T01:47:43;101559.03;;;4.22;87.43
19112;BME280;9688;51.906;8.376;2023-02-16T01:50:41;101551.19;;;4.20;87.26
19112;BME280;9688;51.906;8.376;2023-02-16T01:53:31;101552.06;;;4.22;87.13
19112;BME280;9688;51.906;8.376;2023-02-16T01:56:25;101550.31;;;4.23;87.44
19112;BME280;9688;51.906;8.376;2023-02-16T01:59:23;101551.19;;;4.22;87.86
19112;BME280;9688;51.906;8.376;2023-02-16T02:02:15;101541.59;;;4.19;87.07
19112;BME280;9688;51.906;8.376;2023-02-16T02:05:08;101542.44;;;4.14;87.63
19112;BME280;9688;51.906;8.376;2023-02-16T02:08:22;101539.81;;;4.11;88.11
19112;BME280;9688;51.906;8.376;2023-02-16T02:11:15;101536.31;;;4.06;88.39
19112;BME280;9688;51.906;8.376;2023-02-16T02:14:05;101537.16;;;4.01;88.12
19112;BME280;9688;51.906;8.376;2023-02-16T02:16:55;101535.44;;;4.00;87.59
19112;BME280;9688;51.906;8.376;2023-02-16T02:19:49;101537.16;;;3.98;88.75
19112;BME280;9688;51.906;8.376;2023-02-16T02:23:05;101534.53;;;3.94;87.80
19112;BME280;9688;51.906;8.376;2023-02-16T02:26:43;101529.31;;;3.91;88.74
19112;BME280;9688;51.906;8.376;2023-02-16T02:29:55;101526.66;;;3.88;88.10
19112;BME280;9688;51.906;8.376;2023-02-16T02:32:58;101528.41;;;3.83;88.40
19112;BME280;9688;51.906;8.376;2023-02-16T02:35:50;101537.06;;;3.74;88.13
19112;BME280;9688;51.906;8.376;2023-02-16T02:38:50;101523.97;;;3.69;88.87
19112;BME280;9688;51.906;8.376;2023-02-16T02:41:47;101527.44;;;3.68;88.36
19112;BME280;9688;51.906;8.376;2023-02-16T02:44:54;101529.16;;;3.62;88.16
19112;BME280;9688;51.906;8.376;2023-02-16T02:47:45;101524.78;;;3.56;89.37
19112;BME280;9688;51.906;8.376;2023-02-16T02:50:39;101521.28;;;3.49;89.48
19112;BME280;9688;51.906;8.376;2023-02-16T02:53:50;101530.84;;;3.52;89.01
19112;BME280;9688;51.906;8.376;2023-02-16T02:57:00;101516.06;;;3.49;88.75
19112;BME280;9688;51.906;8.376;2023-02-16T03:00:07;101523.00;;;3.44;89.08
19112;BME280;9688;51.906;8.376;2023-02-16T03:03:14;101527.31;;;3.41;89.71
19112;BME280;9688;51.906;8.376;2023-02-16T03:06:06;101517.75;;;3.38;89.68
19112;BME280;9688;51.906;8.376;2023-02-16T03:08:57;101515.09;;;3.37;89.54
19112;BME280;9688;51.906;8.376;2023-02-16T03:11:46;101516.00;;;3.39;89.39
19112;BME280;9688;51.906;8.376;2023-02-16T03:14:54;101516.84;;;3.41;89.81
19112;BME280;9688;51.906;8.376;2023-02-16T03:17:40;101510.75;;;3.40;89.78
19112;BME280;9688;51.906;8.376;2023-02-16T03:20:44;101514.22;;;3.41;89.84
19112;BME280;9688;51.906;8.376;2023-02-16T03:23:50;101502.94;;;3.43;89.48
19112;BME280;9688;51.906;8.376;2023-02-16T03:26:54;101504.69;;;3.44;89.79
19112;BME280;9688;51.906;8.376;2023-02-16T03:30:00;101507.31;;;3.44;89.14
19112;BME280;9688;51.906;8.376;2023-02-16T03:32:50;101512.53;;;3.46;90.11
19112;BME280;9688;51.906;8.376;2023-02-16T03:35:37;101502.94;;;3.43;89.61
19112;BME280;9688;51.906;8.376;2023-02-16T03:38:23;101509.91;;;3.38;89.50
19112;BME280;9688;51.906;8.376;2023-02-16T03:41:09;101507.28;;;3.40;89.72
19112;BME280;9688;51.906;8.376;2023-02-16T03:43:55;101507.31;;;3.44;90.33
19112;BME280;9688;51.906;8.376;2023-02-16T03:46:42;101501.22;;;3.48;90.24
19112;BME280;9688;51.906;8.376;2023-02-16T03:49:28;101507.34;;;3.53;90.08
19112;BME280;9688;51.906;8.376;2023-02-16T03:52:13;101501.25;;;3.56;89.93
19112;BME280;9688;51.906;8.376;2023-02-16T03:54:59;101509.97;;;3.56;90.45
19112;BME280;9688;51.906;8.376;2023-02-16T03:57:45;101503.00;;;3.57;90.76
19112;BME280;9688;51.906;8.376;2023-02-16T04:00:31;101495.16;;;3.58;90.04
19112;BME280;9688;51.906;8.376;2023-02-16T04:03:18;101497.78;;;3.60;90.21
19112;BME280;9688;51.906;8.376;2023-02-16T04:06:04;101498.69;;;3.64;90.85
19112;BME280;9688;51.906;8.376;2023-02-16T04:08:49;101488.22;;;3.67;90.40
19112;BME280;9688;51.906;8.376;2023-02-16T04:11:35;101484.75;;;3.69;90.02
19112;BME280;9688;51.906;8.376;2023-02-16T04:14:39;101475.16;;;3.71;90.36
19112;BME280;9688;51.906;8.376;2023-02-16T04:17:25;101483.03;;;3.74;90.92
19112;BME280;9688;51.906;8.376;2023-02-16T04:20:17;101477.81;;;3.76;91.16
19112;BME280;9688;51.906;8.376;2023-02-16T04:23:03;101488.28;;;3.80;90.24
19112;BME280;9688;51.906;8.376;2023-02-16T04:25:48;101490.91;;;3.84;90.20
19112;BME280;9688;51.906;8.376;2023-02-16T04:28:34;101492.66;;;3.86;90.28
19112;BME280;9688;51.906;8.376;2023-02-16T04:31:20;101498.75;;;3.85;90.26
19112;BME280;9688;51.906;8.376;2023-02-16T04:34:06;101494.38;;;3.84;90.23
19112;BME280;9688;51.906;8.376;2023-02-16T04:36:53;101491.78;;;3.86;90.18
19112;BME280;9688;51.906;8.376;2023-02-16T04:39:39;101499.63;;;3.87;90.36
19112;BME280;9688;51.906;8.376;2023-02-16T04:42:24;101499.63;;;3.90;91.14
19112;BME280;9688;51.906;8.376;2023-02-16T04:45:11;101497.03;;;3.93;91.16
19112;BME280;9688;51.906;8.376;2023-02-16T04:47:57;101500.53;;;3.94;90.91
19112;BME280;9688;51.906;8.376;2023-02-16T04:50:42;101490.94;;;3.91;90.49
19112;BME280;9688;51.906;8.376;2023-02-16T04:53:30;101502.25;;;3.83;91.40
19112;BME280;9688;51.906;8.376;2023-02-16T04:56:16;101501.34;;;3.79;91.49
19112;BME280;9688;51.906;8.376;2023-02-16T04:59:01;101503.97;;;3.80;90.68
19112;BME280;9688;51.906;8.376;2023-02-16T05:01:48;101497.88;;;3.85;90.35
19112;BME280;9688;51.906;8.376;2023-02-16T05:04:34;101496.16;;;3.87;91.39
19112;BME280;9688;51.906;8.376;2023-02-16T05:07:19;101493.50;;;3.85;90.56
19112;BME280;9688;51.906;8.376;2023-02-16T05:10:08;101488.28;;;3.82;90.68
19112;BME280;9688;51.906;8.376;2023-02-16T05:12:54;101493.50;;;3.82;91.36
19112;BME280;9688;51.906;8.376;2023-02-16T05:15:57;101490.91;;;3.84;91.18
19112;BME280;9688;51.906;8.376;2023-02-16T05:18:44;101486.56;;;3.83;90.66
19112;BME280;9688;51.906;8.376;2023-02-16T05:21:29;101492.63;;;3.82;91.60
19112;BME280;9688;51.906;8.376;2023-02-16T05:24:15;101481.31;;;3.83;91.09
19112;BME280;9688;51.906;8.376;2023-02-16T05:27:03;101480.44;;;3.84;91.36
19112;BME280;9688;51.906;8.376;2023-02-16T05:29:49;101483.06;;;3.85;90.91
19112;BME280;9688;51.906;8.376;2023-02-16T05:32:35;101483.94;;;3.86;91.05
19112;BME280;9688;51.906;8.376;2023-02-16T05:35:21;101468.25;;;3.86;91.08
19112;BME280;9688;51.906;8.376;2023-02-16T05:38:07;101469.09;;;3.85;91.38
19112;BME280;9688;51.906;8.376;2023-02-16T05:40:53;101480.44;;;3.87;91.54
19112;BME280;9688;51.906;8.376;2023-02-16T05:43:40;101481.34;;;3.86;90.63
19112;BME280;9688;51.906;8.376;2023-02-16T05:46:27;101487.41;;;3.85;91.52
19112;BME280;9688;51.906;8.376;2023-02-16T05:49:14;101490.03;;;3.86;91.53
19112;BME280;9688;51.906;8.376;2023-02-16T05:52:01;101496.13;;;3.85;91.41
19112;BME280;9688;51.906;8.376;2023-02-16T05:54:47;101500.47;;;3.82;91.78
19112;BME280;9688;51.906;8.376;2023-02-16T05:57:34;101496.13;;;3.79;91.58
19112;BME280;9688;51.906;8.376;2023-02-16T06:00:21;101491.75;;;3.79;90.82
19112;BME280;9688;51.906;8.376;2023-02-16T06:03:07;101490.88;;;3.79;91.41
19112;BME280;9688;51.906;8.376;2023-02-16T06:05:54;101487.41;;;3.78;90.93
19112;BME280;9688;51.906;8.376;2023-02-16T06:08:40;101494.38;;;3.79;91.40
19112;BME280;9688;51.906;8.376;2023-02-16T06:11:26;101497.03;;;3.83;90.84
19112;BME280;9688;51.906;8.376;2023-02-16T06:14:20;101493.50;;;3.82;90.58
19112;BME280;9688;51.906;8.376;2023-02-16T06:17:07;101493.50;;;3.79;90.62
19112;BME280;9688;51.906;8.376;2023-02-16T06:19:53;101490.00;;;3.74;91.73
19112;BME280;9688;51.906;8.376;2023-02-16T06:22:39;101499.59;;;3.69;91.96
19112;BME280;9688;51.906;8.376;2023-02-16T06:25:25;101497.81;;;3.68;91.85
19112;BME280;9688;51.906;8.376;2023-02-16T06:28:10;101494.34;;;3.67;91.28
19112;BME280;9688;51.906;8.376;2023-02-16T06:30:56;101493.47;;;3.67;91.54
19112;BME280;9688;51.906;8.376;2023-02-16T06:33:43;101487.38;;;3.71;91.06
19112;BME280;9688;51.906;8.376;2023-02-16T06:36:29;101479.53;;;3.71;91.16
19112;BME280;9688;51.906;8.376;2023-02-16T06:39:16;101487.38;;;3.72;91.68
19112;BME280;9688;51.906;8.376;2023-02-16T06:42:02;101497.81;;;3.74;91.23
19112;BME280;9688;51.906;8.376;2023-02-16T06:44:48;101496.94;;;3.70;90.98
19112;BME280;9688;51.906;8.376;2023-02-16T06:47:35;101510.91;;;3.71;91.44
19112;BME280;9688;51.906;8.376;2023-02-16T06:50:23;101507.44;;;3.73;91.69
19112;BME280;9688;51.906;8.376;2023-02-16T06:53:10;101510.03;;;3.76;91.56
19112;BME280;9688;51.906;8.376;2023-02-16T06:55:57;101510.06;;;3.78;91.01
19112;BME280;9688;51.906;8.376;2023-02-16T06:58:46;101508.31;;;3.78;90.81
19112;BME280;9688;51.906;8.376;2023-02-16T07:01:32;101520.56;;;3.83;90.54
19112;BME280;9688;51.906;8.376;2023-02-16T07:04:17;101518.78;;;3.85;90.76
19112;BME280;9688;51.906;8.376;2023-02-16T07:07:05;101519.69;;;3.90;90.43
19112;BME280;9688;51.906;8.376;2023-02-16T07:09:52;101516.22;;;3.92;90.49
19112;BME280;9688;51.906;8.376;2023-02-16T07:12:39;101519.72;;;3.99;90.44
19112;BME280;9688;51.906;8.376;2023-02-16T07:15:25;101524.09;;;4.06;90.49
19112;BME280;9688;51.906;8.376;2023-02-16T07:18:11;101522.41;;;4.19;90.14
19112;BME280;9688;51.906;8.376;2023-02-16T07:20:57;101525.91;;;4.35;90.23
19112;BME280;9688;51.906;8.376;2023-02-16T07:23:44;101523.31;;;4.47;89.27
19112;BME280;9688;51.906;8.376;2023-02-16T07:26:32;101524.19;;;4.64;89.87
19112;BME280;9688;51.906;8.376;2023-02-16T07:29:17;101518.97;;;4.81;88.49
19112;BME280;9688;51.906;8.376;2023-02-16T07:32:03;101517.19;;;4.96;88.75
19112;BME280;9688;51.906;8.376;2023-02-16T07:34:52;101501.47;;;5.09;88.09
19112;BME280;9688;51.906;8.376;2023-02-16T07:37:37;101506.69;;;5.20;88.16
19112;BME280;9688;51.906;8.376;2023-02-16T07:40:25;101497.91;;;5.32;88.55
19112;BME280;9688;51.906;8.376;2023-02-16T07:43:11;101500.50;;;5.46;87.94
19112;BME280;9688;51.906;8.376;2023-02-16T07:45:57;101510.13;;;5.54;87.63
19112;BME280;9688;51.906;8.376;2023-02-16T07:48:46;101503.97;;;5.63;86.80
19112;BME280;9688;51.906;8.376;2023-02-16T07:51:33;101498.66;;;5.72;86.83
19112;BME280;9688;51.906;8.376;2023-02-16T07:54:19;101502.13;;;5.84;86.75
19112;BME280;9688;51.906;8.376;2023-02-16T07:57:06;101500.34;;;5.95;85.34
19112;BME280;9688;51.906;8.376;2023-02-16T07:59:52;101504.66;;;6.07;85.14
19112;BME280;9688;51.906;8.376;2023-02-16T08:02:39;101517.72;;;6.14;84.98
19112;BME280;9688;51.906;8.376;2023-02-16T08:05:25;101522.94;;;6.22;84.71
19112;BME280;9688;51.906;8.376;2023-02-16T08:08:12;101520.28;;;6.28;84.93
19112;BME280;9688;51.906;8.376;2023-02-16T08:10:59;101508.84;;;6.34;84.68
19112;BME280;9688;51.906;8.376;2023-02-16T08:13:47;101499.19;;;6.40;84.12
19112;BME280;9688;51.906;8.376;2023-02-16T08:16:33;101503.53;;;6.46;83.74
19112;BME280;9688;51.906;8.376;2023-02-16T08:19:18;101494.72;;;6.55;83.25
19112;BME280;9688;51.906;8.376;2023-02-16T08:22:06;101503.41;;;6.61;83.45
19112;BME280;9688;51.906;8.376;2023-02-16T08:24:52;101511.22;;;6.69;82.83
19112;BME280;9688;51.906;8.376;2023-02-16T08:27:38;101514.66;;;6.76;82.86
19112;BME280;9688;51.906;8.376;2023-02-16T08:30:26;101508.50;;;6.81;82.94
19112;BME280;9688;51.906;8.376;2023-02-16T08:33:12;101507.59;;;6.85;82.27
19112;BME280;9688;51.906;8.376;2023-02-16T08:35:57;101494.44;;;6.88;82.08
19112;BME280;9688;51.906;8.376;2023-02-16T08:38:44;101499.66;;;6.91;81.78
19112;BME280;9688;51.906;8.376;2023-02-16T08:41:34;101496.06;;;7.00;82.15
19112;BME280;9688;51.906;8.376;2023-02-16T08:44:22;101507.41;;;7.07;81.29
19112;BME280;9688;51.906;8.376;2023-02-16T08:47:10;101502.03;;;7.14;81.11
19112;BME280;9688;51.906;8.376;2023-02-16T08:49:56;101509.84;;;7.25;81.12
19112;BME280;9688;51.906;8.376;2023-02-16T08:52:42;101500.94;;;7.37;80.59
19112;BME280;9688;51.906;8.376;2023-02-16T08:55:29;101499.13;;;7.44;80.24
19112;BME280;9688;51.906;8.376;2023-02-16T08:58:15;101498.19;;;7.49;80.36
19112;BME280;9688;51.906;8.376;2023-02-16T09:01:03;101494.59;;;7.55;80.04
19112;BME280;9688;51.906;8.376;2023-02-16T09:03:50;101485.72;;;7.65;79.74
19112;BME280;9688;51.906;8.376;2023-02-16T09:06:37;101494.34;;;7.76;79.42
19112;BME280;9688;51.906;8.376;2023-02-16T09:09:25;101497.81;;;7.81;79.19
19112;BME280;9688;51.906;8.376;2023-02-16T09:12:11;101496.81;;;7.90;78.97
19112;BME280;9688;51.906;8.376;2023-02-16T09:14:56;101487.03;;;7.98;78.71
19112;BME280;9688;51.906;8.376;2023-02-16T09:17:43;101484.38;;;8.01;78.57
19112;BME280;9688;51.906;8.376;2023-02-16T09:20:31;101486.94;;;8.04;78.44
19112;BME280;9688;51.906;8.376;2023-02-16T09:23:17;101485.13;;;8.08;78.31
19112;BME280;9688;51.906;8.376;2023-02-16T09:26:06;101492.13;;;8.12;78.10
19112;BME280;9688;51.906;8.376;2023-02-16T09:28:52;101499.09;;;8.15;77.89
19112;BME280;9688;51.906;8.376;2023-02-16T09:31:39;101497.28;;;8.18;77.48
19112;BME280;9688;51.906;8.376;2023-02-16T09:34:26;101509.50;;;8.22;77.53
19112;BME280;9688;51.906;8.376;2023-02-16T09:37:14;101520.78;;;8.32;77.54
19112;BME280;9688;51.906;8.376;2023-02-16T09:40:06;101524.22;;;8.40;77.32
19112;BME280;9688;51.906;8.376;2023-02-16T09:43:03;101521.47;;;8.48;76.91
19112;BME280;9688;51.906;8.376;2023-02-16T09:45:52;101523.16;;;8.52;77.05
19112;BME280;9688;51.906;8.376;2023-02-16T09:48:44;101516.88;;;8.61;76.88
19112;BME280;9688;51.906;8.376;2023-02-16T09:51:35;101519.34;;;8.71;76.32
19112;BME280;9688;51.906;8.376;2023-02-16T09:54:31;101509.53;;;8.80;76.32
19112;BME280;9688;51.906;8.376;2023-02-16T09:57:25;101498.00;;;8.87;76.11
19112;BME280;9688;51.906;8.376;2023-02-16T10:00:24;101499.56;;;8.97;75.30
19112;BME280;9688;51.906;8.376;2023-02-16T10:03:22;101501.16;;;9.07;75.28
19112;BME280;9688;51.906;8.376;2023-02-16T10:06:25;101505.38;;;9.18;75.71
19112;BME280;9688;51.906;8.376;2023-02-16T10:09:13;101502.53;;;9.27;75.18
19112;BME280;9688;51.906;8.376;2023-02-16T10:12:07;101506.81;;;9.34;74.69
19112;BME280;9688;51.906;8.376;2023-02-16T10:14:58;101501.38;;;9.42;75.45
19112;BME280;9688;51.906;8.376;2023-02-16T10:17:50;101503.03;;;9.47;75.07
19112;BME280;9688;51.906;8.376;2023-02-16T10:20:41;101506.38;;;9.57;74.01
19112;BME280;9688;51.906;8.376;2023-02-16T10:23:41;101507.09;;;9.64;74.26
19112;BME280;9688;51.906;8.376;2023-02-16T10:26:31;101518.28;;;9.76;73.86
19112;BME280;9688;51.906;8.376;2023-02-16T10:29:21;101520.78;;;9.84;73.62
19112;BME280;9688;51.906;8.376;2023-02-16T10:32:14;101510.03;;;9.92;73.33
19112;BME280;9688;51.906;8.376;2023-02-16T10:35:11;101495.72;;;10.02;72.57
19112;BME280;9688;51.906;8.376;2023-02-16T10:38:05;101508.72;;;10.11;72.61
19112;BME280;9688;51.906;8.376;2023-02-16T10:40:57;101507.78;;;10.15;73.44
19112;BME280;9688;51.906;8.376;2023-02-16T10:43:48;101504.97;;;10.23;72.48
19112;BME280;9688;51.906;8.376;2023-02-16T10:46:43;101499.59;;;10.27;72.48
19112;BME280;9688;51.906;8.376;2023-02-16T10:49:31;101491.53;;;10.34;73.25
19112;BME280;9688;51.906;8.376;2023-02-16T10:52:21;101492.25;;;10.40;72.79
19112;BME280;9688;51.906;8.376;2023-02-16T10:55:10;101490.28;;;10.48;72.54
19112;BME280;9688;51.906;8.376;2023-02-16T10:57:58;101492.78;;;10.55;72.71
19112;BME280;9688;51.906;8.376;2023-02-16T11:00:50;101489.88;;;10.65;72.43
19112;BME280;9688;51.906;8.376;2023-02-16T11:03:45;101483.31;;;10.80;71.74
19112;BME280;9688;51.906;8.376;2023-02-16T11:06:33;101479.38;;;10.97;71.69
19112;BME280;9688;51.906;8.376;2023-02-16T11:09:28;101487.00;;;11.09;71.85
19112;BME280;9688;51.906;8.376;2023-02-16T11:12:24;101474.34;;;11.20;72.02
19112;BME280;9688;51.906;8.376;2023-02-16T11:15:23;101479.28;;;11.32;71.24
19112;BME280;9688;51.906;8.376;2023-02-16T11:18:25;101471.72;;;11.51;70.29
19112;BME280;9688;51.906;8.376;2023-02-16T11:21:14;101469.50;;;11.67;70.25
19112;BME280;9688;51.906;8.376;2023-02-16T11:24:00;101470.94;;;11.77;69.84
19112;BME280;9688;51.906;8.376;2023-02-16T11:26:59;101467.22;;;11.83;70.02
19112;BME280;9688;51.906;8.376;2023-02-16T11:29:46;101476.75;;;11.92;70.01
19112;BME280;9688;51.906;8.376;2023-02-16T11:32:32;101464.06;;;12.01;68.70
19112;BME280;9688;51.906;8.376;2023-02-16T11:35:19;101475.34;;;12.08;68.94
19112;BME280;9688;51.906;8.376;2023-02-16T11:38:23;101469.97;;;12.11;69.13
19112;BME280;9688;51.906;8.376;2023-02-16T11:41:11;101464.56;;;12.14;68.51
19112;BME280;9688;51.906;8.376;2023-02-16T11:43:57;101472.63;;;12.11;68.43
19112;BME280;9688;51.906;8.376;2023-02-16T11:46:43;101468.22;;;12.10;68.30
19112;BME280;9688;51.906;8.376;2023-02-16T11:49:31;101475.16;;;12.14;68.04
19112;BME280;9688;51.906;8.376;2023-02-16T11:52:26;101460.03;;;12.18;68.32
19112;BME280;9688;51.906;8.376;2023-02-16T11:55:22;101468.72;;;12.23;68.03
19112;BME280;9688;51.906;8.376;2023-02-16T11:58:19;101454.28;;;12.32;67.94
19112;BME280;9688;51.906;8.376;2023-02-16T12:01:17;101460.16;;;12.41;68.17
19112;BME280;9688;51.906;8.376;2023-02-16T12:04:12;101453.88;;;12.44;68.09
19112;BME280;9688;51.906;8.376;2023-02-16T12:07:09;101451.31;;;12.41;67.65
19112;BME280;9688;51.906;8.376;2023-02-16T12:10:07;101450.31;;;12.45;67.59
19112;BME280;9688;51.906;8.376;2023-02-16T12:12:59;101450.97;;;12.52;67.83
19112;BME280;9688;51.906;8.376;2023-02-16T12:15:57;101442.88;;;12.56;67.85
19112;BME280;9688;51.906;8.376;2023-02-16T12:18:58;101437.47;;;12.59;67.60
19112;BME280;9688;51.906;8.376;2023-02-16T12:21:52;101442.63;;;12.64;67.31
19112;BME280;9688;51.906;8.376;2023-02-16T12:24:48;101446.75;;;12.72;67.07
19112;BME280;9688;51.906;8.376;2023-02-16T12:27:49;101448.16;;;12.83;66.94
19112;BME280;9688;51.906;8.376;2023-02-16T12:30:49;101444.38;;;12.90;66.91
19112;BME280;9688;51.906;8.376;2023-02-16T12:33:47;101430.03;;;12.95;66.62
19112;BME280;9688;51.906;8.376;2023-02-16T12:36:49;101428.31;;;12.94;66.71
19112;BME280;9688;51.906;8.376;2023-02-16T12:39:50;101422.91;;;12.96;66.69
19112;BME280;9688;51.906;8.376;2023-02-16T12:42:54;101423.00;;;12.94;66.59
19112;BME280;9688;51.906;8.376;2023-02-16T12:45:48;101415.03;;;12.94;66.47
19112;BME280;9688;51.906;8.376;2023-02-16T12:48:44;101413.13;;;12.98;66.31
19112;BME280;9688;51.906;8.376;2023-02-16T12:51:37;101416.88;;;12.92;66.63
19112;BME280;9688;51.906;8.376;2023-02-16T12:54:30;101414.25;;;12.91;66.79
19112;BME280;9688;51.906;8.376;2023-02-16T12:57:24;101412.91;;;13.04;66.67
19112;BME280;9688;51.906;8.376;2023-02-16T13:00:18;101409.13;;;13.11;66.13
19112;BME280;9688;51.906;8.376;2023-02-16T13:03:19;101406.22;;;13.17;66.01
19112;BME280;9688;51.906;8.376;2023-02-16T13:06:13;101399.78;;;13.25;65.84
19112;BME280;9688;51.906;8.376;2023-02-16T13:09:11;101393.44;;;13.29;65.67
19112;BME280;9688;51.906;8.376;2023-02-16T13:12:09;101397.09;;;13.26;66.12
19112;BME280;9688;51.906;8.376;2023-02-16T13:15:12;101399.09;;;13.20;66.17
19112;BME280;9688;51.906;8.376;2023-02-16T13:18:01;101395.03;;;13.09;65.78
19112;BME280;9688;51.906;8.376;2023-02-16T13:20:52;101393.69;;;12.98;66.28
19112;BME280;9688;51.906;8.376;2023-02-16T13:23:56;101387.31;;;12.78;67.02
19112;BME280;9688;51.906;8.376;2023-02-16T13:26:56;101381.41;;;12.70;66.82
19112;BME280;9688;51.906;8.376;2023-02-16T13:29:57;101375.53;;;12.60;67.47
19112;BME280;9688;51.906;8.376;2023-02-16T13:33:09;101374.06;;;12.52;67.39
19112;BME280;9688;51.906;8.376;2023-02-16T13:36:16;101369.19;;;12.39;68.22
19112;BME280;9688;51.906;8.376;2023-02-16T13:39:34;101365.81;;;12.34;67.92
19112;BME280;9688;51.906;8.376;2023-02-16T13:42:53;101347.38;;;12.31;67.98
19112;BME280;9688;51.906;8.376;2023-02-16T13:45:47;101346.56;;;12.29;68.22
19112;BME280;9688;51.906;8.376;2023-02-16T13:48:38;101338.38;;;12.35;68.21
19112;BME280;9688;51.906;8.376;2023-02-16T13:51:42;101332.78;;;12.44;68.36
19112;BME280;9688;51.906;8.376;2023-02-16T13:54:33;101321.09;;;12.50;69.06
19112;BME280;9688;51.906;8.376;2023-02-16T13:57:57;101318.34;;;12.53;69.59
19112;BME280;9688;51.906;8.376;2023-02-16T14:00:48;101313.81;;;12.55;69.88
19112;BME280;9688;51.906;8.376;2023-02-16T14:03:37;101306.53;;;12.62;70.11
19112;BME280;9688;51.906;8.376;2023-02-16T14:06:35;101301.25;;;12.60;70.11
19112;BME280;9688;51.906;8.376;2023-02-16T14:09:44;101303.22;;;12.55;71.21
19112;BME280;9688;51.906;8.376;2023-02-16T14:12:36;101308.63;;;12.52;71.61
19112;BME280;9688;51.906;8.376;2023-02-16T14:15:24;101318.22;;;12.56;72.12
19112;BME280;9688;51.906;8.376;2023-02-16T14:18:20;101310.38;;;12.53;72.23
19112;BME280;9688;51.906;8.376;2023-02-16T14:21:17;101318.16;;;12.58;72.94
19112;BME280;9688;51.906;8.376;2023-02-16T14:24:27;101329.69;;;12.57;72.81
19112;BME280;9688;51.906;8.376;2023-02-16T14:27:39;101324.72;;;12.47;73.24
19112;BME280;9688;51.906;8.376;2023-02-16T14:30:29;101316.91;;;12.43;73.60
19112;BME280;9688;51.906;8.376;2023-02-16T14:33:37;101317.06;;;12.38;74.12
19112;BME280;9688;51.906;8.376;2023-02-16T14:36:26;101320.78;;;12.33;74.43
19112;BME280;9688;51.906;8.376;2023-02-16T14:39:14;101322.84;;;12.24;74.66
19112;BME280;9688;51.906;8.376;2023-02-16T14:42:06;101326.56;;;12.19;75.73
19112;BME280;9688;51.906;8.376;2023-02-16T14:45:07;101325.78;;;12.17;75.36
19112;BME280;9688;51.906;8.376;2023-02-16T14:48:05;101327.59;;;12.15;76.28
19112;BME280;9688;51.906;8.376;2023-02-16T14:51:17;101324.28;;;12.08;76.07
19112;BME280;9688;51.906;8.376;2023-02-16T14:54:28;101321.72;;;12.05;76.35
19112;BME280;9688;51.906;8.376;2023-02-16T14:57:24;101312.09;;;12.02;75.95
19112;BME280;9688;51.906;8.376;2023-02-16T15:00:21;101323.72;;;11.98;76.49
19112;BME280;9688;51.906;8.376;2023-02-16T15:03:15;101319.53;;;11.91;76.06
19112;BME280;9688;51.906;8.376;2023-02-16T15:06:04;101317.00;;;11.88;76.97
19112;BME280;9688;51.906;8.376;2023-02-16T15:08:54;101308.28;;;11.83;77.21
19112;BME280;9688;51.906;8.376;2023-02-16T15:11:48;101311.97;;;11.79;77.45
19112;BME280;9688;51.906;8.376;2023-02-16T15:14:54;101311.09;;;11.78;76.76
19112;BME280;9688;51.906;8.376;2023-02-16T15:17:46;101318.31;;;11.73;77.71